Aeroporto :
LOGIN :

Iscrizione | Disclaimer

   EN    FR    IT 

 










Sommario :    VFR   VFR Marginale   IFR   IFR Intensivo   IFR Molto Intensivo
Visibilità : 
Base nubi : 
>= 8 km
>= 3000ft
5 / 8 km
1000 / 3000 ft
1500m / 5 km
500 / 1000 ft
800 / 1500m
200 / 500 ft
< 800m
< 200 ft
Simboli :   Temporali  Nebbia  Neve Forte  Precipitazioni Forti  Vento > 20 kt
SIGMETs :   Varie  Temporali  Ghiacco  Turbolenza  Onda orograficha  Ceneri Vulcaniche






- Altitudine del aeroporto : 512 ft
- Codice IATA : URO


LFOP - Rouen Vallée de Seine

ULTIMO METAR :
  • 220500Z AUTO 06011KT 5000 // OVC005 14/13 Q1012

METARs OBSOLETI :
  • 220430Z AUTO 06010KT 4900 // OVC005 14/13 Q1011
  • 220400Z AUTO 06008KT 5000 // OVC005 15/14 Q1011
  • 220330Z AUTO 06008KT 6000 // OVC006 15/13 Q1011
  • 220300Z AUTO 07008KT 7000 // OVC006 15/14 Q1011
  • 220230Z AUTO 06007KT 8000 // OVC007 15/14 Q1011

TAF AMD TAF LFOP
Valido dal 21 a 19 ore il 22 a 18 ore UTC


211941Z 2119/2218 03012KT 9999 BKN015 BKN060
TEMPO 2119/2121 02015G25KT 3000 TSRAGS BKN008 BKN030CB
FM212100 03012KT 9999 OVC008
TEMPO 2121/2218 2500 RA BR OVC004 BKN040CB
ATIS : +33 2 35 80 80 34
Met : +33 2 32 86 52 80



MetMap, La meteo Aeronautica in un colpo d'occhio ! - Copyright ORBIFLY Dicembre 2007 - Disclaimer

ORBIFLY MET'MAP TEAM :

Programmazione e sviluppo : Alexandra Zaïnal
Concezione : Baudouin d'Aumeries
Aiuto per la programmazione : Marc-Olivier Méhu
Supporto tecnico e logistico : Manuel Goepfert
Aiuto per la traduzione : Arnaldo La Scala

Contatto : metmap@orbifly.com




FONTI E CREDITI :

   NOAA